Athelstane, Wisconsin
Current Conditions -  °F | °C
As of 10:54 PM on Saturday 25 Oct 2014 (Local Time) from KIMT Reporting Station
Clear Clear  
Wind Chill: 44°   Ceiling: Unl
Heat Index: 49°   Visibility: 10mi
Dew Point: 27°   Wind: 14mph
Humidity: 43%   Direction: 310°NW
Pressure: 29.87"   Gusts: 22mph
Location:  45.42°N, 88.1°W
Report Text: KIMT 260354Z AUTO 31012G19KT 10SM CLR 09/M03 A2987 RMK AO2 SLP118 T00941028
Loading
Personal Weather Stations






























Interactive Weather Map New forecast layout! Learn more

10-Day Weather Forecast

Advertisements
Track Severe Weather on mobile